WEATHER DATA

YESTERDAY
Time Temp. Dewp. Hum. Bar. 1h Prec. 24h Prec.
00:03 -0.2 -2.2 85 1009.1 0.0000 0.0000
00:13 -0.3 -2.3 85 1009.2 0.0000 0.0000
00:23 -0.5 -2.5 85 1009.2 0.0000 0.0000
00:34 -0.6 -2.4 86 1009.4 0.0000 0.0000
00:44 -0.7 -2.5 86 1009.5 0.0000 0.0000
00:54 -0.9 -2.7 86 1009.6 0.0000
01:04 -0.9 -2.7 86 1010 0.0000 0.0000
01:14 -1 -2.7 87 1010.1 0.0000 0.0000
01:24 -1.1 -2.8 87 1010.2 0.0000 0.0000
01:34 -1.2 -2.9 87 1010.3 0.0000 0.0000
01:45 -1.3 -3 87 1010.4 0.0000 0.0000
01:55 -1.5 -3.2 87 1010.5 0.0000 0.0000
02:05 -1.6 -3.3 87 1010.8 0.0000 0.0000
02:15 -1.6 -3.3 87 1010.8 0.0000 0.0000
02:25 -1.7 -3.4 87 1010.8 0.0000 0.0000
02:35 -1.8 -3.3 88 1011 0.0000 0.0000
02:45 -1.9 -3.4 88 1011.1 0.0000 0.0000
02:56 -2 -3.5 88 1010.8 0.0000 0.0000
03:05 -2 -3.5 88 1011 0.0000 0.0000
03:15 -2.2 -3.9 87 1011 0.0000 0.0000
03:25 -2.3 -3.8 88 1011.4 0.0000 0.0000
03:36 -2.3 -3.8 88 1011.4 0.0000 0.0000
03:46 -2.4 -3.9 88 1011.1 0.0000 0.0000
03:56 -2.5 -4 88 1011.3 0.0000 0.0000
04:06 -2.6 -4.1 88 1011.4 0.0000 0.0000
04:16 -2.7 -4.2 88 1011.5 0.0000 0.0000
04:26 -2.8 -4.3 88 1011.6 0.0000 0.0000
04:36 -3 -4.5 88 1011.3 0.0000 0.0000
04:47 -3.1 -4.6 88 1011.4 0.0000 0.0000
04:57 -3.1 -4.5 89 1011.5 0.0000 0.0000
05:06 -3.2 -4.6 89 1011.4 0.0000 0.0000
05:17 -3.3 -4.8 88 1011.5 0.0000 0.0000
05:27 -3.3 -4.7 89 1011.8 0.0000 0.0000
05:37 -3.2 -4.4 90 1012.1 0.0000 0.0000
05:47 -3.2 -4.4 90 1011.7 0.0000 0.0000
05:58 -3.2 -4.6 89 1011.8 0.0000 0.0000
06:08 -3.3 -4.7 89 1011.9 0.0000 0.0000
06:17 -3.2 -4.4 90 1012 0.0000 0.0000
06:27 -3.2 -4.4 90 1012 0.0000 0.0000
06:38 -3.2 -4.4 90 1012.3 0.0000 0.0000
06:48 -3.1 -4.3 90 1012.3 0.0000 0.0000
06:58 -3.2 -4.4 90 1012.1 0.0000 0.0000
07:09 -3.3 -4.7 89 1012 0.0000 0.0000
07:18 -3.3 -4.5 90 1012.2 0.0000 0.0000
07:28 -3.3 -4.5 90 1012.1 0.0000 0.0000
07:38 -3.4 -4.6 90 1012.2 0.0000 0.0000
07:49 -3.4 -4.6 90 1012.2 0.0000 0.0000
07:59 -3.4 -4.6 90 1012.1 0.0000 0.0000
08:09 -3.2 -4.3 91 1012.1 0.0000 0.0000
08:19 -3 -4 92 1012.2 0.0000 0.0000
08:29 -2.6 -3.6 92 1012.1 0.0000 0.0000
08:39 -2.3 -3.3 92 1012.2 0.0000 0.0000
08:49 -2 -3 92 1012.2 0.0000 0.0000
09:00 -1.6 -2.6 92 1012.1 0.0000 0.0000
09:10 -1.4 -2.4 92 1012 0.0000 0.0000
09:20 -1 -2 92 1011.9 0.0000 0.0000
09:29 -0.8 -1.8 92 1011.8 0.0000 0.0000
09:40 -0.5 -1.5 92 1011.9 0.0000 0.0000
09:50 -0.2 -1.2 92 1011.7 0.0000 0.0000
10:00 0 -1 92 1011.8 0.0000 0.0000
10:10 0.2 -0.8 92 1011.8 0.0000 0.0000
10:21 0.4 -0.7 92 1011.5 0.0000 0.0000
10:31 0.6 -0.5 92 1011.4 0.0000 0.0000
10:40 0.8 -0.4 91 1011.2 0.0000 0.0000
10:51 0.9 -0.4 91 1011.3 0.0000 0.0000
11:01 1.1 -0.2 91 1011.2 0.0000 0.0000
11:11 1.2 -0.1 91 1011 0.0000 0.0000
11:21 1.4 0.1 91 1010.8 0.0000 0.0000
11:32 1.6 0.3 91 1010.8 0.0000 0.0000
11:41 1.8 0.5 91 1010.5 0.0000 0.0000
11:51 1.9 0.4 90 1010.4 0.0000 0.0000
12:01 2 0.5 90 1010.3 0.0000 0.0000
12:12 1.9 0.3 89 1010.3 0.0000 0.0000
12:22 1.9 0.3 89 1010.1 0.0000 0.0000
12:32 2 0.4 89 1009.9 0.0000 0.0000
12:42 2 0.4 89 1009.7 0.0000 0.0000
12:52 2 0.4 89 1009.4 0.0000 0.0000
13:02 2.1 0.5 89 1009.3 0.0000 0.0000
13:12 2.1 0.5 89 1009.3 0.0000 0.0000
13:23 2.2 0.6 89 1009.2 0.0000 0.0000
13:33 2.1 0.3 88 1009.1 0.0000 0.0000
13:43 2 0.2 88 1008.9 0.0000 0.0000
13:52 2 0.2 88 1008.6 0.0000 0.0000
14:03 2 0.1 87 1008.6 0.0000 0.0000
14:13 1.9 0 87 1008.3 0.0000 0.0000
14:23 1.9 0 87 1008.2 0.0000 0.0000
14:34 2 0.1 87 1008 0.0000 0.0000
14:44 2.1 0.3 88 1007.7 0.0000 0.0000
14:54 2.2 0.3 87 1007.5 0.0000 0.0000
15:03 2.3 0.4 87 1007.4 0.0000 0.0000
15:14 2.4 0.5 87 1007.2 0.0000 0.0000
15:24 2.5 0.6 87 1007 0.0000 0.0000
15:34 2.6 0.5 86 1007 0.0000 0.0000
15:44 2.6 0.5 86 1006.8 0.0000 0.0000
15:55 2.7 0.6 86 1006.5 0.0000 0.0000
16:05 2.7 0.6 86 1006.2 0.0000 0.0000
16:14 2.8 0.7 86 1005.9 0.0000 0.0000
16:25 2.9 0.8 86 1005.8 0.0000 0.0000
16:35 3 0.9 86 1005.6 0.0000 0.0000
16:45 3 0.9 86 1005.4 0.0000 0.0000
16:55 3 0.9 86 1005.1 0.0000 0.0000
17:06 3 0.9 86 1005 0.0000 0.0000
17:15 3 0.9 86 1004.7 0.0000 0.0000
17:25 3 0.9 86 1004.6 0.0000 0.0000
17:36 3 0.9 86 1004.2 0.0000 0.0000
17:46 3.1 1 86 1004.1 0.0000 0.0000
17:56 3.1 1 86 1003.9 0.0000 0.0000
18:06 3.2 1.1 86 1003.4 0.0000 0.0000
18:16 3.2 1.1 86 1003.4 0.0000 0.0000
18:26 3.3 1.2 86 1003.2 0.0000 0.0000
18:36 3.3 1.2 86 1002.7 0.0000 0.0000
18:46 3.3 1.3 87 1002.5 0.0000 0.0000
18:57 3.3 1.3 87 1002.3 0.0000 0.0000
19:06 3.3 1.5 88 1002.1 0.0000 0.0000
19:16 3.2 1.6 89 1001.7 0.0000 0.0000
19:27 3.2 1.6 89 1001.5 0.0000 0.0000
19:37 3.2 1.7 90 1001.1 0.0000 0.0000
19:47 3.2 1.7 90 1001.2 0.0000 0.0000
19:57 3.2 1.9 91 1001 0.0000 0.0000
20:07 3.2 1.9 91 1000.7 0.0000 0.0000
20:18 3.1 1.8 91 1000.6 0.0000 0.0000
20:28 3 1.7 91 1000.4 0.0000 0.0000
20:38 2.9 1.6 91 1000.3 0.0000 0.0000
20:48 2.8 1.5 91 999.9 0.0000 0.0000
20:58 2.8 1.6 92 999.7 0.0000 0.0000
21:08 2.8 1.6 92 999.5 0.0000 0.0000
21:19 2.7 1.5 92 999.3 0.0000 0.0000
21:29 2.7 1.5 92 999 0.0000 0.0000
21:38 2.7 1.5 92 998.9 0.0000 0.0000
21:48 2.7 1.5 92 998.7 0.0000 0.0000
21:59 2.7 1.7 93 998.6 0.0000 0.0000
22:09 2.8 1.8 93 998.3 0.0000 0.0000
22:19 2.9 1.9 93 998.1 0.0000 0.0000
22:29 3 2 93 997.8 0.0000 0.0000
22:40 3 2 93 998 0.0000 0.0000
22:49 3.1 2.1 93 997.8 0.0000 0.0000
22:59 3.2 2.3 94 997.6 0.0000 0.0000
23:10 3.3 2.4 94 997.4 0.0000 0.0000
23:20 3.4 2.5 94 997.1 0.0000 0.0000
23:30 3.4 2.5 94 997 0.0000 0.0000
23:40 3.5 2.6 94 997 0.0000 0.0000
23:50 3.5 2.6 94 996.7 0.0000 0.0000

DAY STATISTIC

2020-02-20
TEMPERATURE
AVERAGE
0.5
HIGH
3.5
23:40
LOW
-3.4
07:38
PRESSURE
AVERAGE
1007.5
HIGH
1012.3
06:38
LOW
996.7
23:50
DEWPOINT
AVERAGE
-1.0
HIGH
2.6
23:40
LOW
-4.8
05:17
HUMIDITY
AVERAGE
89
HIGH
94
22:59
LOW
85
00:03
PRECIPITATION
RAIN HOUR
0.0
RAIN DAY
0.0
TEMPERATURE (°C)
LOW
-3.4
HIGH
3.5
AVERAGE
0.5
PRESSURE (hpa)
LOW
996.7
HIGH
1012.3
AVERAGE
1007.5
DEVICE